Time;durP1;ratioP1;P1;durP2;ratioP2;P2;SDS_P1;SDS_P2;PMS_P1;PMS_P2;Temp;Humidity;BMP_temperature;BMP_pressure;BME280_temperature;BME280_humidity;BME280_pressure;Samples;Min_cycle;Max_cycle;Signal;HPM_P1;HPM_P2
2022/06/08 00:00:25;;;;;;;24.20;11.30;;;;;;;21.00;41.62;99244.23;25073;1315;3026498;-60
2022/06/08 00:03:05;;;;;;;22.90;10.10;;;;;;;20.98;41.94;99241.27;25064;1315;3026863;-65
2022/06/08 00:05:35;;;;;;;27.50;10.70;;;;;;;20.92;42.18;99247.77;25076;1315;3051803;-62
2022/06/08 00:08:04;;;;;;;21.50;10.70;;;;;;;20.90;41.63;99242.88;25099;1316;3026370;-60
2022/06/08 00:10:34;;;;;;;29.30;10.70;;;;;;;20.88;42.14;99238.42;24776;1315;3503514;-60
2022/06/08 00:13:04;;;;;;;27.90;10.90;;;;;;;20.86;41.95;99235.25;25067;1315;3026411;-62
2022/06/08 00:15:34;;;;;;;22.30;10.90;;;;;;;20.84;42.39;99235.32;25053;1315;3027949;-60
2022/06/08 00:18:05;;;;;;;25.10;10.90;;;;;;;20.79;42.29;99241.33;25114;1315;3026995;-62
2022/06/08 00:20:34;;;;;;;30.60;10.70;;;;;;;20.79;41.99;99237.48;25048;1315;3051816;-60
2022/06/08 00:23:04;;;;;;;22.60;10.70;;;;;;;20.77;42.23;99241.20;25098;1315;3026743;-64
2022/06/08 00:25:34;;;;;;;31.50;11.30;;;;;;;20.72;42.14;99239.36;25039;1316;3056961;-65
2022/06/08 00:28:03;;;;;;;26.00;12.40;;;;;;;20.70;41.97;99237.63;25095;1316;3026512;-59
2022/06/08 00:30:32;;;;;;;24.20;10.40;;;;;;;20.71;42.07;99239.33;25032;1315;3052102;-59
2022/06/08 00:33:03;;;;;;;29.10;11.30;;;;;;;20.73;42.06;99240.07;25098;1316;3026989;-63
2022/06/08 00:35:32;;;;;;;25.00;11.90;;;;;;;20.74;42.00;99236.38;25028;1316;3026028;-61
2022/06/08 00:38:01;;;;;;;24.80;11.90;;;;;;;20.73;42.02;99234.83;25093;1315;3055951;-63
2022/06/08 00:41:10;;;;;;;30.10;13.40;;;;;;;20.71;42.07;99237.56;25050;1316;3026559;-60
2022/06/08 00:43:40;;;;;;;29.50;13.30;;;;;;;20.66;42.19;99237.54;24969;1318;3055240;-64
2022/06/08 00:46:09;;;;;;;29.90;13.20;;;;;;;20.64;41.97;99231.38;25069;1316;3026835;-64
2022/06/08 00:48:43;;;;;;;30.10;13.70;;;;;;;20.63;42.29;99233.63;25010;1316;3051373;-62
2022/06/08 00:51:12;;;;;;;34.00;13.80;;;;;;;20.63;42.25;99232.71;25018;1315;3054873;-60
2022/06/08 00:54:02;;;;;;;28.90;13.10;;;;;;;20.63;42.25;99234.31;25061;1316;3026125;-61
2022/06/08 00:56:35;;;;;;;29.50;13.20;;;;;;;20.64;42.14;99229.92;25086;1315;3048995;-63
2022/06/08 00:59:05;;;;;;;30.50;13.40;;;;;;;20.63;42.15;99229.02;25075;1315;3026184;-63
2022/06/08 01:01:34;;;;;;;30.50;13.50;;;;;;;20.59;42.36;99229.21;25044;1315;3027042;-62
2022/06/08 01:04:08;;;;;;;33.30;14.10;;;;;;;20.61;42.35;99227.23;25086;1316;3048906;-60
2022/06/08 01:06:41;;;;;;;32.20;14.30;;;;;;;20.62;42.61;99227.78;25051;1315;3054637;-64
2022/06/08 01:09:18;;;;;;;31.40;13.50;;;;;;;20.62;42.29;99223.58;25078;1316;3026877;-60
2022/06/08 01:11:49;;;;;;;33.30;15.20;;;;;;;20.61;42.51;99221.20;25031;1315;3059355;-64
2022/06/08 01:14:19;;;;;;;34.30;14.20;;;;;;;20.58;42.56;99218.96;25071;1316;3026302;-63
2022/06/08 01:16:56;;;;;;;32.70;14.70;;;;;;;20.55;42.54;99219.89;25000;1319;3028797;-59
2022/06/08 01:19:25;;;;;;;34.80;14.00;;;;;;;20.53;42.80;99221.52;25104;1316;3051827;-58
2022/06/08 01:21:57;;;;;;;29.30;14.10;;;;;;;20.52;42.89;99223.05;25046;1316;3027152;-61
2022/06/08 01:24:33;;;;;;;37.00;14.90;;;;;;;20.51;43.28;99219.95;25022;1319;3049502;-61
2022/06/08 01:27:20;;;;;;;33.20;13.90;;;;;;;20.49;43.15;99218.02;25084;1315;3028028;-61
2022/06/08 01:30:15;;;;;;;34.20;12.90;;;;;;;20.47;43.21;99218.95;25005;1316;3053330;-62
2022/06/08 01:33:04;;;;;;;33.10;13.50;;;;;;;20.43;43.73;99219.50;25037;1315;3058741;-58
2022/06/08 01:36:44;;;;;;;32.00;13.20;;;;;;;20.47;43.41;99216.23;31462;1319;3025972;-61
2022/06/08 01:39:21;;;;;;;34.70;16.90;;;;;;;20.71;43.14;99219.08;24890;1322;3054622;-63
2022/06/08 01:41:57;;;;;;;36.30;15.80;;;;;;;20.91;42.47;99217.64;24878;1322;3053064;-61
2022/06/08 01:44:34;;;;;;;33.80;15.90;;;;;;;20.81;42.68;99217.13;25040;1319;3055457;-61
2022/06/08 01:47:35;;;;;;;32.90;15.10;;;;;;;20.75;42.81;99224.36;25044;1319;3050961;-58
2022/06/08 01:50:33;;;;;;;36.80;15.30;;;;;;;20.71;42.74;99217.88;24685;1316;3483900;-57
2022/06/08 01:53:17;;;;;;;37.90;15.60;;;;;;;20.65;42.90;99218.73;25090;1315;3052134;-60
2022/06/08 01:56:19;;;;;;;32.00;15.20;;;;;;;20.64;42.97;99224.23;25020;1316;3071307;-64
2022/06/08 01:59:16;;;;;;;34.30;14.40;;;;;;;20.62;42.87;99222.11;25045;1315;3049855;-62
2022/06/08 02:02:08;;;;;;;44.20;14.40;;;;;;;20.60;42.89;99221.40;25058;1314;3051979;-63
2022/06/08 02:04:46;;;;;;;39.00;14.60;;;;;;;20.59;42.87;99220.63;25042;1315;3055635;-62
2022/06/08 02:07:39;;;;;;;37.70;15.00;;;;;;;20.59;43.11;99217.66;25082;1315;3058991;-56
2022/06/08 02:10:32;;;;;;;30.10;14.00;;;;;;;20.58;42.87;99218.77;25088;1315;3052230;-62
2022/06/08 02:13:12;;;;;;;36.80;14.60;;;;;;;20.63;43.05;99217.77;25075;1315;3055909;-60
2022/06/08 02:15:44;;;;;;;31.40;13.80;;;;;;;20.65;42.84;99219.11;25006;1318;3052178;-61
2022/06/08 02:18:27;;;;;;;37.10;14.90;;;;;;;20.67;42.74;99218.91;25041;1318;3068717;-57
2022/06/08 02:21:00;;;;;;;31.60;15.10;;;;;;;20.70;42.64;99218.84;24998;1318;3049872;-62
2022/06/08 02:23:41;;;;;;;34.70;15.60;;;;;;;20.74;42.46;99219.81;25063;1315;3052501;-64
2022/06/08 02:26:21;;;;;;;33.40;15.10;;;;;;;20.76;42.38;99223.66;25070;1316;3052637;-59
2022/06/08 02:28:55;;;;;;;34.70;15.50;;;;;;;20.79;42.07;99226.19;25044;1316;3059060;-62
2022/06/08 02:31:25;;;;;;;39.20;15.70;;;;;;;20.82;41.89;99225.61;24992;1316;3052495;-59
2022/06/08 02:34:28;;;;;;;37.80;15.40;;;;;;;20.84;41.95;99229.65;25117;1316;3026197;-60
2022/06/08 02:37:21;;;;;;;40.70;16.10;;;;;;;20.85;42.03;99230.55;25098;1315;3053158;-62
2022/06/08 02:39:59;;;;;;;42.40;16.30;;;;;;;20.91;41.92;99225.44;25093;1316;3070983;-59
2022/06/08 02:42:39;;;;;;;33.30;15.90;;;;;;;21.04;41.92;99226.75;25406;1316;3051964;-58
2022/06/08 02:45:21;;;;;;;35.30;15.60;;;;;;;21.12;42.16;99226.45;25431;1315;3054668;-55
2022/06/08 02:47:51;;;;;;;32.70;15.00;;;;;;;21.14;42.52;99229.25;25288;1315;3054797;-58
2022/06/08 02:50:22;;;;;;;40.50;16.90;;;;;;;21.11;42.75;99234.58;24977;1318;3027138;-60
2022/06/08 02:52:52;;;;;;;32.50;14.70;;;;;;;21.11;42.99;99235.38;25077;1315;3026416;-59
2022/06/08 02:55:28;;;;;;;33.40;15.30;;;;;;;21.09;43.17;99239.67;25127;1316;3027350;-62
2022/06/08 02:58:03;;;;;;;39.30;15.80;;;;;;;21.08;44.02;99240.61;25054;1316;3050667;-62
2022/06/08 03:00:40;;;;;;;47.50;16.40;;;;;;;21.05;44.59;99236.44;25022;1316;3026720;-59
2022/06/08 03:03:13;;;;;;;30.30;14.50;;;;;;;21.00;45.47;99242.68;25061;1316;3052140;-60
2022/06/08 03:06:04;;;;;;;29.80;14.20;;;;;;;20.90;46.35;99245.20;25037;1316;3026570;-66
2022/06/08 03:08:37;;;;;;;34.50;15.00;;;;;;;20.87;46.59;99246.88;25061;1315;3053967;-61
2022/06/08 03:11:08;;;;;;;36.80;15.20;;;;;;;20.91;46.82;99247.21;25034;1315;3026652;-63
2022/06/08 03:13:53;;;;;;;37.30;14.70;;;;;;;20.95;47.11;99249.61;25078;1315;3026405;-62
2022/06/08 03:16:25;;;;;;;38.20;15.10;;;;;;;20.97;47.92;99251.05;24977;1318;3055692;-64
2022/06/08 03:18:56;;;;;;;35.80;14.80;;;;;;;20.97;47.83;99250.35;25035;1316;3053700;-63
2022/06/08 03:21:27;;;;;;;32.80;14.70;;;;;;;20.96;48.67;99249.15;25027;1315;3026696;-62
2022/06/08 03:23:56;;;;;;;31.70;13.90;;;;;;;20.92;50.09;99249.51;25057;1316;3026976;-59
2022/06/08 03:26:27;;;;;;;35.80;14.70;;;;;;;20.93;49.98;99246.58;25064;1315;3027671;-58
2022/06/08 03:28:56;;;;;;;39.70;13.70;;;;;;;20.96;50.69;99250.08;25054;1315;3026182;-60
2022/06/08 03:31:26;;;;;;;32.70;13.90;;;;;;;20.93;51.84;99248.98;25040;1315;3026684;-57
2022/06/08 03:33:55;;;;;;;35.70;14.10;;;;;;;20.88;52.93;99252.48;25066;1315;3055201;-59
2022/06/08 03:36:24;;;;;;;31.20;13.40;;;;;;;20.88;52.84;99250.01;25042;1315;3028145;-60
2022/06/08 03:38:53;;;;;;;28.60;13.20;;;;;;;20.87;53.42;99249.63;25102;1315;3026654;-60
2022/06/08 03:41:22;;;;;;;31.20;13.30;;;;;;;20.86;53.23;99251.61;25065;1315;3051209;-59
2022/06/08 03:43:52;;;;;;;28.40;12.40;;;;;;;20.86;53.98;99253.27;25078;1315;3027340;-61
2022/06/08 03:46:21;;;;;;;34.20;13.50;;;;;;;20.86;55.40;99251.71;25107;1316;3027897;-61
2022/06/08 03:48:52;;;;;;;34.10;13.10;;;;;;;20.83;56.34;99248.09;25013;1315;3026719;-64
2022/06/08 03:51:22;;;;;;;40.90;12.30;;;;;;;20.81;56.95;99248.96;25109;1315;3026883;-61
2022/06/08 03:53:57;;;;;;;34.10;13.20;;;;;;;20.80;58.03;99245.85;25077;1316;3028812;-58
2022/06/08 03:56:27;;;;;;;36.10;13.10;;;;;;;20.81;58.15;99247.96;25022;1316;3070713;-65
2022/06/08 03:58:56;;;;;;;30.90;12.10;;;;;;;20.84;57.51;99245.96;25035;1316;3026733;-63
2022/06/08 04:01:25;;;;;;;25.80;12.20;;;;;;;20.90;57.16;99252.63;25076;1316;3026754;-58
2022/06/08 04:03:58;;;;;;;27.10;11.90;;;;;;;20.97;56.59;99254.44;25022;1318;3026939;-57
2022/06/08 04:06:29;;;;;;;32.80;14.60;;;;;;;21.03;56.12;99260.90;25067;1315;3026732;-60
2022/06/08 04:08:58;;;;;;;32.90;14.20;;;;;;;21.07;55.94;99259.50;25018;1315;3026541;-58
2022/06/08 04:11:29;;;;;;;34.20;15.00;;;;;;;21.14;55.82;99258.77;25067;1314;3028630;-60
2022/06/08 04:14:00;;;;;;;33.80;14.20;;;;;;;21.18;55.94;99257.14;25053;1315;3026837;-58
2022/06/08 04:16:31;;;;;;;36.20;15.00;;;;;;;21.21;56.38;99260.54;25080;1315;3027205;-62
2022/06/08 04:19:04;;;;;;;37.00;14.20;;;;;;;21.25;56.32;99258.55;25044;1316;3051842;-61
2022/06/08 04:21:37;;;;;;;33.90;14.70;;;;;;;21.30;55.71;99258.09;25368;1315;3026682;-61
2022/06/08 04:24:10;;;;;;;41.70;15.80;;;;;;;21.36;55.04;99260.30;25066;1315;3026496;-59
2022/06/08 04:26:41;;;;;;;37.30;15.80;;;;;;;21.41;54.12;99267.15;25075;1316;3026954;-59
2022/06/08 04:29:17;;;;;;;38.60;14.90;;;;;;;21.49;54.28;99273.06;25102;1315;3052164;-60
2022/06/08 04:31:48;;;;;;;40.40;16.10;;;;;;;21.55;53.68;99277.16;25083;1316;3026609;-62
2022/06/08 04:34:20;;;;;;;45.90;16.50;;;;;;;21.62;52.62;99275.31;25138;1315;3028123;-64
2022/06/08 04:36:49;;;;;;;47.40;16.00;;;;;;;21.66;51.44;99277.91;25117;1316;3026555;-59
2022/06/08 04:39:19;;;;;;;43.00;15.20;;;;;;;21.71;51.01;99281.77;25139;1316;3055895;-63
2022/06/08 04:42:08;;;;;;;42.10;14.40;;;;;;;21.77;50.62;99284.17;25034;1318;3053938;-59
2022/06/08 04:44:41;;;;;;;38.90;15.50;;;;;;;21.83;49.63;99283.16;25129;1316;3026344;-61
2022/06/08 04:47:14;;;;;;;39.90;15.10;;;;;;;21.89;49.38;99284.31;25049;1316;3026647;-68
2022/06/08 04:49:43;;;;;;;45.00;17.80;;;;;;;21.93;48.68;99280.00;25138;1316;3027069;-58
2022/06/08 04:52:13;;;;;;;34.90;14.90;;;;;;;22.01;48.01;99281.77;25164;1316;3026673;-65
2022/06/08 04:54:42;;;;;;;35.90;14.70;;;;;;;22.07;48.04;99281.40;25114;1315;3026775;-58
2022/06/08 04:57:13;;;;;;;41.40;15.70;;;;;;;22.17;47.51;99279.21;25106;1315;3051586;-63
2022/06/08 04:59:43;;;;;;;36.90;14.90;;;;;;;22.25;46.84;99284.91;25088;1315;3026487;-61
2022/06/08 05:02:42;;;;;;;32.40;13.20;;;;;;;22.36;46.42;99285.56;25077;1316;3056115;-58
2022/06/08 05:05:08;;;;;;;32.90;12.90;;;;;;;22.46;45.48;99287.63;25104;1315;3052503;-58
2022/06/08 05:07:52;;;;;;;;;;;;;;;22.52;45.37;99288.23;25097;1315;3054428;-60
2022/06/08 05:10:25;;;;;;;37.50;14.20;;;;;;;22.54;44.91;99288.73;25164;1316;3026482;-60
2022/06/08 05:12:54;;;;;;;42.80;17.60;;;;;;;22.60;44.20;99283.91;25048;1315;3026787;-63
2022/06/08 05:15:28;;;;;;;37.50;15.00;;;;;;;22.68;42.87;99281.09;25153;1315;3027235;-59
2022/06/08 05:17:59;;;;;;;33.50;13.90;;;;;;;22.72;42.45;99282.30;25078;1316;3051659;-62
2022/06/08 05:20:29;;;;;;;43.40;17.20;;;;;;;22.80;42.90;99282.86;25081;1316;3026407;-61
2022/06/08 05:23:00;;;;;;;44.50;17.70;;;;;;;22.88;42.69;99281.10;25073;1315;3026318;-60
2022/06/08 05:25:33;;;;;;;37.30;16.90;;;;;;;22.96;42.75;99285.30;25064;1316;3026710;-61
2022/06/08 05:28:06;;;;;;;43.90;20.30;;;;;;;23.03;42.70;99290.23;25102;1316;3053627;-60
2022/06/08 05:30:37;;;;;;;55.40;22.30;;;;;;;23.12;41.99;99288.08;25065;1315;3027497;-63
2022/06/08 05:33:06;;;;;;;45.60;21.60;;;;;;;23.20;42.04;99290.78;25048;1316;3026846;-59
2022/06/08 05:35:37;;;;;;;63.00;22.00;;;;;;;23.28;41.49;99288.77;25036;1315;3026875;-59
2022/06/08 05:38:07;;;;;;;41.90;17.60;;;;;;;23.34;41.02;99286.55;25141;1315;3026507;-61
2022/06/08 05:40:39;;;;;;;37.10;14.60;;;;;;;23.40;40.81;99282.34;25128;1316;3026881;-60
2022/06/08 05:43:12;;;;;;;27.40;11.00;;;;;;;23.46;40.75;99281.36;25135;1314;3026835;-61
2022/06/08 05:45:42;;;;;;;25.30;10.30;;;;;;;23.50;40.35;99278.88;25072;1315;3026453;-60
2022/06/08 05:48:14;;;;;;;23.30;10.20;;;;;;;23.57;39.73;99276.88;25106;1316;3026780;-61
2022/06/08 05:50:44;;;;;;;20.30;9.80;;;;;;;23.64;39.40;99278.91;25133;1316;3026993;-59
2022/06/08 05:53:15;;;;;;;29.40;11.90;;;;;;;23.73;38.72;99272.81;25073;1316;3026514;-62
2022/06/08 05:55:44;;;;;;;27.00;11.60;;;;;;;23.71;37.93;99272.46;25044;1316;3026889;-61
2022/06/08 05:58:15;;;;;;;29.00;11.60;;;;;;;23.81;38.45;99273.48;25053;1316;3052980;-61
2022/06/08 06:00:45;;;;;;;28.70;11.70;;;;;;;23.88;38.52;99271.58;25054;1316;3027302;-58
2022/06/08 06:03:17;;;;;;;40.80;18.20;;;;;;;23.92;38.60;99272.18;25047;1316;3026946;-62
2022/06/08 06:05:47;;;;;;;48.20;22.80;;;;;;;23.85;38.96;99271.16;25054;1315;3028231;-60
2022/06/08 06:08:19;;;;;;;53.50;24.60;;;;;;;23.91;38.57;99269.57;25112;1315;3027368;-59
2022/06/08 06:10:59;;;;;;;50.50;24.00;;;;;;;24.04;37.47;99269.42;25118;1315;3057264;-62
2022/06/08 06:13:41;;;;;;;49.60;21.60;;;;;;;24.11;37.37;99268.41;25095;1315;3052491;-60
2022/06/08 06:16:16;;;;;;;46.90;20.70;;;;;;;24.20;36.91;99266.46;25073;1315;3055614;-58
2022/06/08 06:18:50;;;;;;;41.40;19.20;;;;;;;24.27;37.01;99262.96;25067;1316;3055947;-61
2022/06/08 06:21:25;;;;;;;34.90;14.00;;;;;;;24.32;36.58;99262.02;25146;1316;3068397;-60
2022/06/08 06:24:20;;;;;;;29.10;11.20;;;;;;;24.41;36.09;99259.23;25049;1315;3053625;-60
2022/06/08 06:27:01;;;;;;;51.60;22.70;;;;;;;24.48;36.02;99260.11;25103;1316;3052383;-59
2022/06/08 06:29:53;;;;;;;66.70;28.50;;;;;;;24.45;34.93;99257.06;25120;1316;3055696;-58
2022/06/08 06:32:54;;;;;;;56.80;25.00;;;;;;;24.51;35.62;99256.48;25011;1316;3059411;-59
2022/06/08 06:35:26;;;;;;;50.50;22.70;;;;;;;24.57;35.69;99257.11;24998;1316;3053890;-59
2022/06/08 06:37:59;;;;;;;58.30;22.80;;;;;;;24.64;36.17;99253.64;25073;1315;3051677;-61
2022/06/08 06:40:31;;;;;;;34.30;14.50;;;;;;;24.74;36.25;99255.72;25135;1316;3026866;-60
2022/06/08 06:43:01;;;;;;;25.50;11.00;;;;;;;24.72;36.38;99253.52;25028;1318;3026813;-59
2022/06/08 06:45:35;;;;;;;23.40;10.00;;;;;;;24.77;35.75;99254.76;25073;1316;3051632;-58
2022/06/08 06:48:23;;;;;;;14.80;6.90;;;;;;;24.89;35.04;99257.95;25094;1316;3055569;-63
2022/06/08 06:50:52;;;;;;;10.50;5.30;;;;;;;25.02;34.59;99255.26;25054;1315;3026916;-57
2022/06/08 06:53:22;;;;;;;15.10;4.90;;;;;;;25.10;34.12;99255.78;25111;1316;3026956;-59
2022/06/08 06:55:55;;;;;;;;;;;;;;;25.15;34.72;99255.00;25092;1315;3052393;-60
2022/06/08 06:58:30;;;;;;;17.40;5.60;;;;;;;25.14;34.85;99251.39;25085;1315;3053183;-60
2022/06/08 07:00:59;;;;;;;14.50;5.90;;;;;;;25.24;35.10;99252.10;25093;1315;3026883;-63
2022/06/08 07:03:29;;;;;;;11.10;5.50;;;;;;;25.36;34.75;99248.84;25120;1316;3028165;-60
2022/06/08 07:05:59;;;;;;;15.70;5.20;;;;;;;25.45;34.87;99247.46;25152;1316;3026903;-58
2022/06/08 07:08:29;;;;;;;17.50;5.00;;;;;;;25.52;34.40;99245.40;25467;1315;3026344;-57
2022/06/08 07:13:50;;;;;;;17.90;5.30;;;;;;;25.73;33.61;99247.77;25274;1315;3059019;-60
2022/06/08 07:16:20;;;;;;;10.20;4.90;;;;;;;25.77;33.44;99245.65;25054;1315;3026422;-60
2022/06/08 07:18:50;;;;;;;16.70;5.00;;;;;;;25.85;33.37;99246.04;25050;1315;3026533;-59
2022/06/08 07:21:20;;;;;;;16.60;5.80;;;;;;;25.86;32.71;99244.14;25069;1315;3028573;-64
2022/06/08 07:23:49;;;;;;;17.00;5.40;;;;;;;25.90;33.00;99242.01;25086;1316;3026988;-60
2022/06/08 07:26:18;;;;;;;14.10;5.50;;;;;;;26.03;32.48;99243.83;25106;1316;3055372;-63
2022/06/08 07:28:47;;;;;;;15.60;6.20;;;;;;;26.07;32.69;99242.13;25080;1316;3030701;-61
2022/06/08 07:31:16;;;;;;;13.10;6.70;;;;;;;26.17;32.71;99243.91;25072;1315;3052054;-60
2022/06/08 07:33:45;;;;;;;16.30;6.10;;;;;;;26.27;32.50;99237.61;25039;1316;3026841;-60
2022/06/08 07:36:15;;;;;;;16.10;6.30;;;;;;;26.30;32.72;99239.16;25066;1316;3057728;-60
2022/06/08 07:38:44;;;;;;;19.30;6.70;;;;;;;26.34;33.03;99242.40;25050;1316;3026952;-60
2022/06/08 07:41:26;;;;;;;22.60;6.50;;;;;;;26.48;32.42;99241.29;25062;1316;3053252;-61
2022/06/08 07:43:55;;;;;;;22.90;7.20;;;;;;;26.58;32.12;99234.40;25119;1315;3026534;-63
2022/06/08 07:46:24;;;;;;;18.40;6.80;;;;;;;26.64;32.04;99237.23;25080;1315;3051308;-63
2022/06/08 07:51:41;;;;;;;18.10;7.10;;;;;;;26.76;31.84;99236.76;25125;1315;3059324;-61
2022/06/08 07:54:10;;;;;;;16.50;7.50;;;;;;;26.81;31.16;99237.92;25029;1316;3026458;-58
2022/06/08 07:56:40;;;;;;;15.80;8.80;;;;;;;26.82;31.77;99230.64;25027;1315;3055146;-59
2022/06/08 07:59:09;;;;;;;26.90;10.80;;;;;;;26.79;31.13;99231.90;25095;1315;3026676;-59
2022/06/08 08:01:40;;;;;;;20.10;10.00;;;;;;;26.73;31.18;99229.81;25104;1316;3055278;-60
2022/06/08 08:04:09;;;;;;;23.30;10.10;;;;;;;26.85;30.78;99224.45;25125;1315;3026686;-60
2022/06/08 08:06:38;;;;;;;25.60;11.70;;;;;;;26.98;31.00;99222.20;25114;1316;3026999;-61
2022/06/08 08:09:13;;;;;;;24.30;11.30;;;;;;;27.05;30.27;99217.89;25068;1316;3054822;-60
2022/06/08 08:11:42;;;;;;;23.60;10.70;;;;;;;27.10;30.16;99208.52;25068;1315;3051699;-62
2022/06/08 08:14:13;;;;;;;24.80;11.10;;;;;;;27.10;30.13;99214.48;25064;1315;3026509;-62
2022/06/08 08:16:44;;;;;;;24.30;11.80;;;;;;;27.13;30.25;99207.64;25045;1315;3026530;-58
2022/06/08 08:19:16;;;;;;;26.90;11.50;;;;;;;27.21;30.43;99206.52;25103;1316;3026937;-61
2022/06/08 08:21:46;;;;;;;26.10;11.30;;;;;;;27.27;31.16;99206.19;25037;1315;3058887;-56
2022/06/08 08:24:15;;;;;;;29.60;10.90;;;;;;;27.35;31.55;99207.52;25069;1316;3026621;-62
2022/06/08 08:26:45;;;;;;;26.90;11.00;;;;;;;27.46;31.30;99206.81;25044;1316;3054656;-62
2022/06/08 08:29:15;;;;;;;24.70;10.40;;;;;;;27.55;31.19;99202.08;25042;1315;3026602;-64
2022/06/08 08:31:44;;;;;;;27.80;11.10;;;;;;;27.53;31.26;99201.38;25085;1316;3026280;-59
2022/06/08 08:34:13;;;;;;;19.40;10.50;;;;;;;27.56;31.13;99199.50;25060;1315;3026623;-63
2022/06/08 08:36:42;;;;;;;21.80;9.10;;;;;;;27.61;31.00;99198.94;25083;1315;3058572;-57
2022/06/08 08:39:11;;;;;;;18.70;9.40;;;;;;;27.73;30.74;99207.22;25124;1315;3026739;-61
2022/06/08 08:44:44;;;;;;;19.20;9.20;;;;;;;27.72;31.42;99201.13;25183;1316;3056986;-61
2022/06/08 08:47:34;;;;;;;24.80;9.60;;;;;;;27.81;30.97;99194.75;25062;1315;3049665;-62
2022/06/08 08:50:22;;;;;;;20.90;9.00;;;;;;;27.86;30.78;99194.11;25050;1315;3055892;-60
2022/06/08 08:53:01;;;;;;;23.30;9.20;;;;;;;27.92;31.12;99190.51;25100;1315;3051597;-58
2022/06/08 08:55:35;;;;;;;18.10;9.10;;;;;;;28.02;31.17;99194.65;25074;1315;3071637;-59
2022/06/08 08:58:04;;;;;;;;;;;;;;;28.16;30.21;99191.83;25012;1316;3051707;-59
2022/06/08 09:00:37;;;;;;;23.10;9.60;;;;;;;28.09;30.37;99192.10;25093;1316;3027179;-61
2022/06/08 09:03:39;;;;;;;16.50;8.60;;;;;;;28.15;30.09;99191.88;25064;1316;3071847;-59
2022/06/08 09:06:12;;;;;;;20.20;8.80;;;;;;;28.20;29.96;99185.06;25071;1316;3049306;-57
2022/06/08 09:08:46;;;;;;;21.10;8.50;;;;;;;28.19;29.88;99180.75;25109;1316;3055080;-61
2022/06/08 09:11:24;;;;;;;16.70;9.20;;;;;;;28.33;29.98;99175.98;25139;1315;3055424;-62
2022/06/08 09:13:56;;;;;;;21.10;8.90;;;;;;;28.33;29.71;99171.59;25041;1315;3056027;-59
2022/06/08 09:16:37;;;;;;;21.00;8.90;;;;;;;28.25;29.88;99170.17;25155;1316;3026686;-61
2022/06/08 09:19:23;;;;;;;18.40;8.60;;;;;;;28.24;29.39;99165.24;25121;1315;3055289;-66
2022/06/08 09:22:02;;;;;;;17.10;8.80;;;;;;;28.47;28.92;99164.18;25058;1315;3054419;-59
2022/06/08 09:24:37;;;;;;;19.20;8.70;;;;;;;28.51;28.99;99164.63;25068;1318;3070236;-59
2022/06/08 09:27:17;;;;;;;17.10;8.60;;;;;;;28.59;28.70;99163.02;25045;1316;3047868;-61
2022/06/08 09:29:57;;;;;;;21.40;9.10;;;;;;;28.63;28.81;99164.11;25037;1316;3055644;-58
2022/06/08 09:32:51;;;;;;;24.40;8.10;;;;;;;28.86;28.62;99168.89;25027;1315;3055066;-59
2022/06/08 09:35:35;;;;;;;18.30;9.00;;;;;;;29.09;27.80;99164.71;25019;1315;3059377;-60
2022/06/08 09:38:12;;;;;;;24.00;8.70;;;;;;;29.25;27.93;99160.27;25063;1316;3049999;-60
2022/06/08 09:40:47;;;;;;;25.20;8.50;;;;;;;29.30;27.42;99159.69;25062;1314;3053778;-61
2022/06/08 09:43:38;;;;;;;20.00;7.80;;;;;;;29.36;27.67;99155.70;24990;1315;3054102;-60
2022/06/08 09:46:19;;;;;;;16.40;8.10;;;;;;;29.42;27.88;99156.52;25046;1315;3071032;-61
2022/06/08 09:52:32;;;;;;;29.90;8.90;;;;;;;29.61;27.13;99159.20;24949;1320;3056222;-63
2022/06/08 09:55:26;;;;;;;23.60;8.50;;;;;;;29.52;27.42;99154.88;24960;1322;3052889;-61
2022/06/08 09:58:07;;;;;;;20.80;8.80;;;;;;;29.57;27.50;99157.45;25065;1318;3058630;-59
2022/06/08 10:00:49;;;;;;;18.50;8.60;;;;;;;29.74;27.41;99152.44;25180;1316;3053990;-59
2022/06/08 10:03:21;;;;;;;20.30;8.00;;;;;;;29.79;27.09;99145.65;25086;1315;3056259;-58
2022/06/08 10:06:00;;;;;;;;;;;;;;;29.76;26.91;99142.27;25145;1316;3054191;-58
2022/06/08 10:08:50;;;;;;;16.70;8.00;;;;;;;29.69;26.46;99138.31;25026;1315;3071653;-61
2022/06/08 10:11:41;;;;;;;16.70;8.40;;;;;;;29.80;26.38;99136.90;25098;1316;3052020;-61
2022/06/08 10:14:36;;;;;;;16.60;8.70;;;;;;;29.97;26.39;99140.50;25115;1315;3052989;-57
2022/06/08 10:17:18;;;;;;;25.10;8.10;;;;;;;30.12;25.97;99137.11;25116;1316;3053233;-57
2022/06/08 10:20:11;;;;;;;19.80;8.60;;;;;;;30.13;25.81;99137.27;25087;1315;3059563;-58
2022/06/08 10:22:52;;;;;;;14.80;7.50;;;;;;;30.13;26.46;99138.34;25107;1315;3049913;-59
2022/06/08 10:25:47;;;;;;;24.50;8.10;;;;;;;30.31;25.61;99131.83;25044;1313;3055937;-56
2022/06/08 10:28:52;;;;;;;18.50;8.40;;;;;;;30.20;25.98;99130.54;25041;1315;3054300;-59
2022/06/08 10:31:36;;;;;;;19.30;8.80;;;;;;;30.19;25.90;99125.83;25088;1314;3072932;-57
2022/06/08 10:34:22;;;;;;;14.00;7.70;;;;;;;30.33;25.71;99122.60;25106;1316;3050147;-59
2022/06/08 10:36:54;;;;;;;12.00;7.50;;;;;;;30.37;25.31;99119.80;25037;1316;3054048;-60
2022/06/08 10:39:25;;;;;;;16.30;7.40;;;;;;;30.42;25.94;99124.05;25051;1316;3026845;-59
2022/06/08 10:42:40;;;;;;;16.70;8.10;;;;;;;30.50;25.58;99118.45;25018;1316;3026722;-55
2022/06/08 10:45:21;;;;;;;17.30;8.10;;;;;;;30.56;25.85;99113.52;25040;1315;3052991;-58
2022/06/08 10:47:55;;;;;;;19.00;8.50;;;;;;;30.40;25.76;99113.30;25075;1316;3055495;-59
2022/06/08 10:50:30;;;;;;;16.40;7.60;;;;;;;30.31;25.20;99113.45;25140;1316;3051210;-60
2022/06/08 10:56:51;;;;;;;14.10;6.90;;;;;;;30.46;25.16;99110.59;25068;1316;3051398;-57
2022/06/08 10:59:24;;;;;;;21.20;7.70;;;;;;;30.54;25.02;99103.34;25053;1315;3054248;-60
2022/06/08 11:01:55;;;;;;;17.60;7.60;;;;;;;30.32;25.23;99102.69;25119;1316;3052224;-57
2022/06/08 11:04:32;;;;;;;13.40;7.00;;;;;;;30.29;25.77;99108.90;25109;1316;3026031;-60
2022/06/08 11:07:06;;;;;;;15.20;7.20;;;;;;;30.61;25.09;99108.50;25067;1316;3052291;-60
2022/06/08 11:09:36;;;;;;;19.60;7.30;;;;;;;30.87;24.58;99102.83;25045;1316;3053100;-60
2022/06/08 11:12:11;;;;;;;12.50;7.50;;;;;;;31.05;23.98;99101.77;25085;1316;3026560;-60
2022/06/08 11:14:44;;;;;;;17.70;7.30;;;;;;;31.09;24.23;99095.48;25200;1316;3026096;-60
2022/06/08 11:17:26;;;;;;;23.50;7.80;;;;;;;31.16;24.01;99098.48;25119;1319;3027187;-63
2022/06/08 11:20:02;;;;;;;17.70;6.90;;;;;;;31.15;23.86;99093.29;25122;1319;3054873;-60
2022/06/08 11:22:37;;;;;;;13.40;6.80;;;;;;;31.19;24.54;99092.95;25114;1316;3055041;-60
2022/06/08 11:25:11;;;;;;;18.10;6.90;;;;;;;31.28;24.58;99088.58;25136;1319;3056929;-58
2022/06/08 11:27:40;;;;;;;17.00;6.60;;;;;;;31.44;23.73;99088.10;25072;1318;3048832;-61
2022/06/08 11:30:22;;;;;;;25.30;7.60;;;;;;;31.63;23.13;99088.17;25099;1315;3026416;-60
2022/06/08 11:32:51;;;;;;;15.50;7.00;;;;;;;31.55;23.56;99083.33;25112;1316;3058699;-61
2022/06/08 11:35:38;;;;;;;21.30;6.60;;;;;;;31.49;23.33;99083.81;25114;1316;3026542;-61
2022/06/08 11:38:32;;;;;;;14.30;6.80;;;;;;;31.33;23.26;99088.02;25131;1316;3052741;-61
2022/06/08 11:41:22;;;;;;;;;;;;;;;31.58;23.12;99085.38;25122;1316;3058482;-61
2022/06/08 11:43:51;;;;;;;15.50;6.50;;;;;;;31.70;22.69;99079.81;25027;1316;3049564;-58
2022/06/08 11:46:33;;;;;;;16.20;6.40;;;;;;;31.71;22.46;99081.14;25151;1316;3026723;-58
2022/06/08 11:49:03;;;;;;;12.50;6.40;;;;;;;31.83;23.11;99077.18;25129;1316;3055271;-61
2022/06/08 11:51:35;;;;;;;20.00;6.70;;;;;;;32.07;22.73;99078.81;25154;1315;3027157;-62
2022/06/08 11:54:18;;;;;;;17.10;7.60;;;;;;;32.21;22.71;99076.82;25139;1316;3028949;-61
2022/06/08 11:56:59;;;;;;;20.60;7.30;;;;;;;32.21;22.44;99074.26;25241;1316;3052284;-63
2022/06/08 11:59:28;;;;;;;16.70;7.10;;;;;;;32.25;22.68;99066.50;25107;1316;3051925;-59
2022/06/08 12:02:01;;;;;;;17.70;7.60;;;;;;;32.31;22.48;99070.02;25169;1315;3026774;-59